sensor_id;sensor_type;location;lat;lon;timestamp;temperature;humidity
14735;DHT22;7458;49.002;8.472;2022-12-20T00:01:21;4.30;99.90
14735;DHT22;7458;49.002;8.472;2022-12-20T00:03:50;4.40;99.90
14735;DHT22;7458;49.002;8.472;2022-12-20T00:06:18;4.40;99.90
14735;DHT22;7458;49.002;8.472;2022-12-20T00:08:44;4.40;99.90
14735;DHT22;7458;49.002;8.472;2022-12-20T00:11:11;4.40;99.90
14735;DHT22;7458;49.002;8.472;2022-12-20T00:13:38;4.30;99.90
14735;DHT22;7458;49.002;8.472;2022-12-20T00:16:09;4.40;99.90
14735;DHT22;7458;49.002;8.472;2022-12-20T00:18:38;4.30;99.90
14735;DHT22;7458;49.002;8.472;2022-12-20T00:21:07;4.30;99.90
14735;DHT22;7458;49.002;8.472;2022-12-20T00:23:35;4.30;99.90
14735;DHT22;7458;49.002;8.472;2022-12-20T00:26:09;4.30;99.90
14735;DHT22;7458;49.002;8.472;2022-12-20T00:28:38;4.30;99.90
14735;DHT22;7458;49.002;8.472;2022-12-20T00:31:06;4.20;99.90
14735;DHT22;7458;49.002;8.472;2022-12-20T00:33:34;4.20;99.90
14735;DHT22;7458;49.002;8.472;2022-12-20T00:36:02;4.10;99.90
14735;DHT22;7458;49.002;8.472;2022-12-20T00:38:29;4.10;99.90
14735;DHT22;7458;49.002;8.472;2022-12-20T00:41:01;4.10;99.90
14735;DHT22;7458;49.002;8.472;2022-12-20T00:43:29;4.00;99.90
14735;DHT22;7458;49.002;8.472;2022-12-20T00:45:55;4.00;99.90
14735;DHT22;7458;49.002;8.472;2022-12-20T00:48:22;4.40;99.90
14735;DHT22;7458;49.002;8.472;2022-12-20T00:50:48;3.90;99.90
14735;DHT22;7458;49.002;8.472;2022-12-20T00:53:14;4.10;99.90
14735;DHT22;7458;49.002;8.472;2022-12-20T00:55:45;3.90;99.90
14735;DHT22;7458;49.002;8.472;2022-12-20T00:58:12;3.90;99.90
14735;DHT22;7458;49.002;8.472;2022-12-20T01:00:38;3.90;99.90
14735;DHT22;7458;49.002;8.472;2022-12-20T01:03:05;4.00;99.90
14735;DHT22;7458;49.002;8.472;2022-12-20T01:05:32;3.90;99.90
14735;DHT22;7458;49.002;8.472;2022-12-20T01:07:58;3.90;99.90
14735;DHT22;7458;49.002;8.472;2022-12-20T01:10:24;3.90;99.90
14735;DHT22;7458;49.002;8.472;2022-12-20T01:12:50;3.90;99.90
14735;DHT22;7458;49.002;8.472;2022-12-20T01:15:16;3.90;99.90
14735;DHT22;7458;49.002;8.472;2022-12-20T01:17:42;3.90;99.90
14735;DHT22;7458;49.002;8.472;2022-12-20T01:20:08;3.80;99.90
14735;DHT22;7458;49.002;8.472;2022-12-20T01:22:34;3.90;99.90
14735;DHT22;7458;49.002;8.472;2022-12-20T01:25:00;3.90;99.90
14735;DHT22;7458;49.002;8.472;2022-12-20T01:27:25;3.80;99.90
14735;DHT22;7458;49.002;8.472;2022-12-20T01:29:51;3.80;99.90
14735;DHT22;7458;49.002;8.472;2022-12-20T01:32:17;3.80;99.90
14735;DHT22;7458;49.002;8.472;2022-12-20T01:34:43;3.80;99.90
14735;DHT22;7458;49.002;8.472;2022-12-20T01:37:09;3.80;99.90
14735;DHT22;7458;49.002;8.472;2022-12-20T01:39:34;3.90;99.90
14735;DHT22;7458;49.002;8.472;2022-12-20T01:42:01;3.90;99.90
14735;DHT22;7458;49.002;8.472;2022-12-20T01:46:53;3.90;99.90
14735;DHT22;7458;49.002;8.472;2022-12-20T01:49:22;3.90;99.90
14735;DHT22;7458;49.002;8.472;2022-12-20T01:51:57;4.00;99.90
14735;DHT22;7458;49.002;8.472;2022-12-20T01:54:49;4.00;99.90
14735;DHT22;7458;49.002;8.472;2022-12-20T01:57:24;4.00;99.90
14735;DHT22;7458;49.002;8.472;2022-12-20T01:59:56;4.00;99.90
14735;DHT22;7458;49.002;8.472;2022-12-20T02:02:23;3.90;99.90
14735;DHT22;7458;49.002;8.472;2022-12-20T02:04:49;4.00;99.90
14735;DHT22;7458;49.002;8.472;2022-12-20T02:07:23;4.20;99.90
14735;DHT22;7458;49.002;8.472;2022-12-20T02:09:53;3.90;99.90
14735;DHT22;7458;49.002;8.472;2022-12-20T02:12:27;3.90;99.90
14735;DHT22;7458;49.002;8.472;2022-12-20T02:15:22;3.80;99.90
14735;DHT22;7458;49.002;8.472;2022-12-20T02:21:28;3.90;99.90
14735;DHT22;7458;49.002;8.472;2022-12-20T02:32:58;4.00;99.90
14735;DHT22;7458;49.002;8.472;2022-12-20T02:35:33;4.00;99.90
14735;DHT22;7458;49.002;8.472;2022-12-20T02:38:04;4.00;99.90
14735;DHT22;7458;49.002;8.472;2022-12-20T02:40:50;4.10;99.90
14735;DHT22;7458;49.002;8.472;2022-12-20T02:43:22;4.00;99.90
14735;DHT22;7458;49.002;8.472;2022-12-20T02:46:10;4.00;99.90
14735;DHT22;7458;49.002;8.472;2022-12-20T02:48:37;4.10;99.90
14735;DHT22;7458;49.002;8.472;2022-12-20T02:51:07;4.10;99.90
14735;DHT22;7458;49.002;8.472;2022-12-20T02:53:36;4.20;99.90
14735;DHT22;7458;49.002;8.472;2022-12-20T02:56:13;4.20;99.90
14735;DHT22;7458;49.002;8.472;2022-12-20T02:58:54;4.20;99.90
14735;DHT22;7458;49.002;8.472;2022-12-20T03:01:32;4.20;99.90
14735;DHT22;7458;49.002;8.472;2022-12-20T03:04:02;4.20;99.90
14735;DHT22;7458;49.002;8.472;2022-12-20T03:06:30;4.20;99.90
14735;DHT22;7458;49.002;8.472;2022-12-20T03:08:56;4.30;99.90
14735;DHT22;7458;49.002;8.472;2022-12-20T03:11:22;4.30;99.90
14735;DHT22;7458;49.002;8.472;2022-12-20T03:13:48;4.40;99.90
14735;DHT22;7458;49.002;8.472;2022-12-20T03:16:14;4.30;99.90
14735;DHT22;7458;49.002;8.472;2022-12-20T03:18:39;4.40;99.90
14735;DHT22;7458;49.002;8.472;2022-12-20T03:21:05;4.50;99.90
14735;DHT22;7458;49.002;8.472;2022-12-20T03:23:31;4.50;99.90
14735;DHT22;7458;49.002;8.472;2022-12-20T03:25:57;4.50;99.90
14735;DHT22;7458;49.002;8.472;2022-12-20T03:28:23;4.60;99.90
14735;DHT22;7458;49.002;8.472;2022-12-20T03:30:49;4.60;99.90
14735;DHT22;7458;49.002;8.472;2022-12-20T03:33:15;4.60;99.90
14735;DHT22;7458;49.002;8.472;2022-12-20T03:35:41;4.60;99.90
14735;DHT22;7458;49.002;8.472;2022-12-20T03:38:07;4.60;99.90
14735;DHT22;7458;49.002;8.472;2022-12-20T03:40:33;4.60;99.90
14735;DHT22;7458;49.002;8.472;2022-12-20T03:42:58;4.60;99.90
14735;DHT22;7458;49.002;8.472;2022-12-20T03:45:24;4.50;99.90
14735;DHT22;7458;49.002;8.472;2022-12-20T03:47:50;4.60;99.90
14735;DHT22;7458;49.002;8.472;2022-12-20T03:50:16;4.60;99.90
14735;DHT22;7458;49.002;8.472;2022-12-20T03:52:41;4.60;99.90
14735;DHT22;7458;49.002;8.472;2022-12-20T03:55:08;4.60;99.90
14735;DHT22;7458;49.002;8.472;2022-12-20T03:57:34;4.60;99.90
14735;DHT22;7458;49.002;8.472;2022-12-20T04:00:00;4.60;99.90
14735;DHT22;7458;49.002;8.472;2022-12-20T04:02:26;4.60;99.90
14735;DHT22;7458;49.002;8.472;2022-12-20T04:04:52;4.60;99.90
14735;DHT22;7458;49.002;8.472;2022-12-20T04:07:18;4.70;99.90
14735;DHT22;7458;49.002;8.472;2022-12-20T04:09:44;4.70;99.90
14735;DHT22;7458;49.002;8.472;2022-12-20T04:12:10;4.70;99.90
14735;DHT22;7458;49.002;8.472;2022-12-20T04:14:36;4.60;99.90
14735;DHT22;7458;49.002;8.472;2022-12-20T04:17:02;4.60;99.90
14735;DHT22;7458;49.002;8.472;2022-12-20T04:19:28;4.60;99.90
14735;DHT22;7458;49.002;8.472;2022-12-20T04:21:53;4.60;99.90
14735;DHT22;7458;49.002;8.472;2022-12-20T04:24:20;4.70;99.90
14735;DHT22;7458;49.002;8.472;2022-12-20T04:26:46;4.70;99.90
14735;DHT22;7458;49.002;8.472;2022-12-20T04:29:14;4.70;99.90
14735;DHT22;7458;49.002;8.472;2022-12-20T04:31:40;4.70;99.90
14735;DHT22;7458;49.002;8.472;2022-12-20T04:34:06;4.70;99.90
14735;DHT22;7458;49.002;8.472;2022-12-20T04:36:32;4.70;99.90
14735;DHT22;7458;49.002;8.472;2022-12-20T04:38:58;4.70;99.90
14735;DHT22;7458;49.002;8.472;2022-12-20T04:41:24;4.70;99.90
14735;DHT22;7458;49.002;8.472;2022-12-20T04:43:54;4.70;99.90
14735;DHT22;7458;49.002;8.472;2022-12-20T04:46:23;4.70;99.90
14735;DHT22;7458;49.002;8.472;2022-12-20T04:48:50;4.70;99.90
14735;DHT22;7458;49.002;8.472;2022-12-20T04:51:16;4.80;99.90
14735;DHT22;7458;49.002;8.472;2022-12-20T04:53:42;4.80;99.90
14735;DHT22;7458;49.002;8.472;2022-12-20T04:56:17;4.80;99.90
14735;DHT22;7458;49.002;8.472;2022-12-20T04:58:50;4.80;99.90
14735;DHT22;7458;49.002;8.472;2022-12-20T05:01:17;4.80;99.90
14735;DHT22;7458;49.002;8.472;2022-12-20T05:03:43;4.80;99.90
14735;DHT22;7458;49.002;8.472;2022-12-20T05:06:10;4.80;99.90
14735;DHT22;7458;49.002;8.472;2022-12-20T05:08:37;4.90;99.90
14735;DHT22;7458;49.002;8.472;2022-12-20T05:11:04;4.80;99.90
14735;DHT22;7458;49.002;8.472;2022-12-20T05:13:31;4.80;99.90
14735;DHT22;7458;49.002;8.472;2022-12-20T05:15:57;4.80;99.90
14735;DHT22;7458;49.002;8.472;2022-12-20T05:18:24;5.10;99.90
14735;DHT22;7458;49.002;8.472;2022-12-20T05:20:54;4.80;99.90
14735;DHT22;7458;49.002;8.472;2022-12-20T05:23:42;4.80;99.90
14735;DHT22;7458;49.002;8.472;2022-12-20T05:26:29;4.80;99.90
14735;DHT22;7458;49.002;8.472;2022-12-20T05:28:57;4.90;99.90
14735;DHT22;7458;49.002;8.472;2022-12-20T05:31:23;4.90;99.90
14735;DHT22;7458;49.002;8.472;2022-12-20T05:33:49;4.90;99.90
14735;DHT22;7458;49.002;8.472;2022-12-20T05:36:14;4.90;99.90
14735;DHT22;7458;49.002;8.472;2022-12-20T05:38:40;4.90;99.90
14735;DHT22;7458;49.002;8.472;2022-12-20T05:41:06;4.90;99.90
14735;DHT22;7458;49.002;8.472;2022-12-20T05:43:32;4.90;99.90
14735;DHT22;7458;49.002;8.472;2022-12-20T05:45:59;4.80;99.90
14735;DHT22;7458;49.002;8.472;2022-12-20T05:48:24;4.90;99.90
14735;DHT22;7458;49.002;8.472;2022-12-20T05:50:50;4.90;99.90
14735;DHT22;7458;49.002;8.472;2022-12-20T05:53:16;4.90;99.90
14735;DHT22;7458;49.002;8.472;2022-12-20T05:55:51;4.90;99.90
14735;DHT22;7458;49.002;8.472;2022-12-20T05:58:18;4.90;99.90
14735;DHT22;7458;49.002;8.472;2022-12-20T06:00:44;5.00;99.90
14735;DHT22;7458;49.002;8.472;2022-12-20T06:03:12;5.00;99.90
14735;DHT22;7458;49.002;8.472;2022-12-20T06:05:39;4.90;99.90
14735;DHT22;7458;49.002;8.472;2022-12-20T06:08:07;5.00;99.90
14735;DHT22;7458;49.002;8.472;2022-12-20T06:10:34;4.90;99.90
14735;DHT22;7458;49.002;8.472;2022-12-20T06:13:01;5.00;99.90
14735;DHT22;7458;49.002;8.472;2022-12-20T06:15:28;5.00;99.90
14735;DHT22;7458;49.002;8.472;2022-12-20T06:17:55;5.00;99.90
14735;DHT22;7458;49.002;8.472;2022-12-20T06:20:21;4.90;99.90
14735;DHT22;7458;49.002;8.472;2022-12-20T06:22:47;5.00;99.90
14735;DHT22;7458;49.002;8.472;2022-12-20T06:25:13;5.00;99.90
14735;DHT22;7458;49.002;8.472;2022-12-20T06:27:40;5.00;99.90
14735;DHT22;7458;49.002;8.472;2022-12-20T06:30:07;4.90;99.90
14735;DHT22;7458;49.002;8.472;2022-12-20T06:32:34;5.00;99.90
14735;DHT22;7458;49.002;8.472;2022-12-20T06:35:00;5.00;99.90
14735;DHT22;7458;49.002;8.472;2022-12-20T06:37:26;5.00;99.90
14735;DHT22;7458;49.002;8.472;2022-12-20T06:39:52;5.00;99.90
14735;DHT22;7458;49.002;8.472;2022-12-20T06:42:18;5.00;99.90
14735;DHT22;7458;49.002;8.472;2022-12-20T06:44:44;5.10;99.90
14735;DHT22;7458;49.002;8.472;2022-12-20T06:47:09;5.10;99.90
14735;DHT22;7458;49.002;8.472;2022-12-20T06:49:35;5.10;99.90
14735;DHT22;7458;49.002;8.472;2022-12-20T06:52:01;5.10;99.90
14735;DHT22;7458;49.002;8.472;2022-12-20T06:54:27;5.10;99.90
14735;DHT22;7458;49.002;8.472;2022-12-20T06:56:53;5.10;99.90
14735;DHT22;7458;49.002;8.472;2022-12-20T06:59:19;5.20;99.90
14735;DHT22;7458;49.002;8.472;2022-12-20T07:01:44;5.20;99.90
14735;DHT22;7458;49.002;8.472;2022-12-20T07:04:10;5.20;99.90
14735;DHT22;7458;49.002;8.472;2022-12-20T07:06:36;5.30;99.90
14735;DHT22;7458;49.002;8.472;2022-12-20T07:09:02;5.30;99.90
14735;DHT22;7458;49.002;8.472;2022-12-20T07:11:28;5.30;99.90
14735;DHT22;7458;49.002;8.472;2022-12-20T07:13:55;5.40;99.90
14735;DHT22;7458;49.002;8.472;2022-12-20T07:16:22;5.40;99.90
14735;DHT22;7458;49.002;8.472;2022-12-20T07:18:50;5.50;99.90
14735;DHT22;7458;49.002;8.472;2022-12-20T07:21:16;5.60;99.90
14735;DHT22;7458;49.002;8.472;2022-12-20T07:23:44;5.60;99.90
14735;DHT22;7458;49.002;8.472;2022-12-20T07:26:11;5.60;99.90
14735;DHT22;7458;49.002;8.472;2022-12-20T07:28:38;5.60;99.90
14735;DHT22;7458;49.002;8.472;2022-12-20T07:31:05;5.50;99.90
14735;DHT22;7458;49.002;8.472;2022-12-20T07:33:32;5.60;99.90
14735;DHT22;7458;49.002;8.472;2022-12-20T07:36:10;5.60;99.90
14735;DHT22;7458;49.002;8.472;2022-12-20T07:38:37;5.60;99.90
14735;DHT22;7458;49.002;8.472;2022-12-20T07:41:11;5.50;99.90
14735;DHT22;7458;49.002;8.472;2022-12-20T07:43:39;5.50;99.90
14735;DHT22;7458;49.002;8.472;2022-12-20T07:46:06;5.50;99.90
14735;DHT22;7458;49.002;8.472;2022-12-20T07:48:32;5.60;99.90
14735;DHT22;7458;49.002;8.472;2022-12-20T07:51:02;5.60;99.90
14735;DHT22;7458;49.002;8.472;2022-12-20T07:53:34;5.60;99.90
14735;DHT22;7458;49.002;8.472;2022-12-20T07:56:07;5.60;99.90
14735;DHT22;7458;49.002;8.472;2022-12-20T07:58:36;5.60;99.90
14735;DHT22;7458;49.002;8.472;2022-12-20T08:01:05;5.60;99.90
14735;DHT22;7458;49.002;8.472;2022-12-20T08:03:44;5.70;99.90
14735;DHT22;7458;49.002;8.472;2022-12-20T08:06:14;5.70;99.90
14735;DHT22;7458;49.002;8.472;2022-12-20T08:08:46;5.80;99.90
14735;DHT22;7458;49.002;8.472;2022-12-20T08:11:17;5.80;99.90
14735;DHT22;7458;49.002;8.472;2022-12-20T08:13:44;5.90;99.90
14735;DHT22;7458;49.002;8.472;2022-12-20T08:16:10;5.80;99.90
14735;DHT22;7458;49.002;8.472;2022-12-20T08:18:36;5.80;99.90
14735;DHT22;7458;49.002;8.472;2022-12-20T08:21:01;5.90;99.90
14735;DHT22;7458;49.002;8.472;2022-12-20T08:23:27;5.90;99.90
14735;DHT22;7458;49.002;8.472;2022-12-20T08:25:53;5.90;99.90
14735;DHT22;7458;49.002;8.472;2022-12-20T08:28:19;6.00;99.90
14735;DHT22;7458;49.002;8.472;2022-12-20T08:30:45;6.00;99.90
14735;DHT22;7458;49.002;8.472;2022-12-20T08:33:11;6.10;99.90
14735;DHT22;7458;49.002;8.472;2022-12-20T08:35:36;6.10;99.90
14735;DHT22;7458;49.002;8.472;2022-12-20T08:38:02;6.20;99.90
14735;DHT22;7458;49.002;8.472;2022-12-20T08:40:28;6.20;99.90
14735;DHT22;7458;49.002;8.472;2022-12-20T08:42:54;6.20;99.90
14735;DHT22;7458;49.002;8.472;2022-12-20T08:45:19;6.20;99.90
14735;DHT22;7458;49.002;8.472;2022-12-20T08:47:45;6.20;99.90
14735;DHT22;7458;49.002;8.472;2022-12-20T08:50:12;6.20;99.90
14735;DHT22;7458;49.002;8.472;2022-12-20T08:52:38;6.20;99.90
14735;DHT22;7458;49.002;8.472;2022-12-20T08:55:04;6.20;99.90
14735;DHT22;7458;49.002;8.472;2022-12-20T08:57:31;6.20;99.90
14735;DHT22;7458;49.002;8.472;2022-12-20T08:59:57;6.30;99.90
14735;DHT22;7458;49.002;8.472;2022-12-20T09:02:23;6.30;99.90
14735;DHT22;7458;49.002;8.472;2022-12-20T09:04:52;6.30;99.90
14735;DHT22;7458;49.002;8.472;2022-12-20T09:07:18;6.30;99.90
14735;DHT22;7458;49.002;8.472;2022-12-20T09:09:45;6.40;99.90
14735;DHT22;7458;49.002;8.472;2022-12-20T09:12:11;6.40;99.90
14735;DHT22;7458;49.002;8.472;2022-12-20T09:14:37;6.40;99.90
14735;DHT22;7458;49.002;8.472;2022-12-20T09:17:03;6.40;99.90
14735;DHT22;7458;49.002;8.472;2022-12-20T09:19:29;6.50;99.90
14735;DHT22;7458;49.002;8.472;2022-12-20T09:21:55;6.50;99.90
14735;DHT22;7458;49.002;8.472;2022-12-20T09:24:21;6.50;99.90
14735;DHT22;7458;49.002;8.472;2022-12-20T09:26:47;6.60;99.90
14735;DHT22;7458;49.002;8.472;2022-12-20T09:29:13;6.60;99.90
14735;DHT22;7458;49.002;8.472;2022-12-20T09:31:39;6.70;99.90
14735;DHT22;7458;49.002;8.472;2022-12-20T09:34:05;6.60;99.90
14735;DHT22;7458;49.002;8.472;2022-12-20T09:36:31;6.60;99.90
14735;DHT22;7458;49.002;8.472;2022-12-20T09:38:57;6.70;99.90
14735;DHT22;7458;49.002;8.472;2022-12-20T09:41:31;6.80;99.90
14735;DHT22;7458;49.002;8.472;2022-12-20T09:44:03;6.80;99.90
14735;DHT22;7458;49.002;8.472;2022-12-20T09:46:38;6.90;99.90
14735;DHT22;7458;49.002;8.472;2022-12-20T09:49:05;6.90;99.90
14735;DHT22;7458;49.002;8.472;2022-12-20T09:52:04;6.90;99.90
14735;DHT22;7458;49.002;8.472;2022-12-20T09:58:14;7.00;99.90
14735;DHT22;7458;49.002;8.472;2022-12-20T10:00:56;7.00;99.90
14735;DHT22;7458;49.002;8.472;2022-12-20T10:03:28;7.00;99.90
14735;DHT22;7458;49.002;8.472;2022-12-20T10:06:08;7.00;99.90
14735;DHT22;7458;49.002;8.472;2022-12-20T10:08:56;7.00;99.90
14735;DHT22;7458;49.002;8.472;2022-12-20T10:12:00;7.00;99.90
14735;DHT22;7458;49.002;8.472;2022-12-20T10:15:12;7.00;99.90
14735;DHT22;7458;49.002;8.472;2022-12-20T10:23:27;7.10;99.90
14735;DHT22;7458;49.002;8.472;2022-12-20T10:26:00;7.10;99.90
14735;DHT22;7458;49.002;8.472;2022-12-20T10:28:29;7.20;99.90
14735;DHT22;7458;49.002;8.472;2022-12-20T10:31:00;7.30;99.90
14735;DHT22;7458;49.002;8.472;2022-12-20T10:33:32;7.30;99.90
14735;DHT22;7458;49.002;8.472;2022-12-20T10:36:33;7.40;99.90
14735;DHT22;7458;49.002;8.472;2022-12-20T10:39:05;7.50;99.90
14735;DHT22;7458;49.002;8.472;2022-12-20T10:41:48;7.50;99.90
14735;DHT22;7458;49.002;8.472;2022-12-20T10:44:23;7.50;99.90
14735;DHT22;7458;49.002;8.472;2022-12-20T10:46:54;7.50;99.90
14735;DHT22;7458;49.002;8.472;2022-12-20T10:54:32;7.60;99.90
14735;DHT22;7458;49.002;8.472;2022-12-20T10:57:06;7.60;99.90
14735;DHT22;7458;49.002;8.472;2022-12-20T10:59:44;7.60;99.90
14735;DHT22;7458;49.002;8.472;2022-12-20T11:08:08;7.60;99.90
14735;DHT22;7458;49.002;8.472;2022-12-20T11:10:40;7.60;99.90
14735;DHT22;7458;49.002;8.472;2022-12-20T11:13:09;7.60;99.90
14735;DHT22;7458;49.002;8.472;2022-12-20T11:15:50;7.60;99.90
14735;DHT22;7458;49.002;8.472;2022-12-20T11:24:16;9.10;99.90
14735;DHT22;7458;49.002;8.472;2022-12-20T11:29:58;8.50;99.90
14735;DHT22;7458;49.002;8.472;2022-12-20T11:35:51;8.20;99.90
14735;DHT22;7458;49.002;8.472;2022-12-20T11:51:48;8.20;99.90
14735;DHT22;7458;49.002;8.472;2022-12-20T11:54:47;8.20;99.90
14735;DHT22;7458;49.002;8.472;2022-12-20T11:57:31;8.20;99.90
14735;DHT22;7458;49.002;8.472;2022-12-20T12:00:10;8.20;99.90
14735;DHT22;7458;49.002;8.472;2022-12-20T12:02:50;8.30;99.90
14735;DHT22;7458;49.002;8.472;2022-12-20T12:05:28;8.40;99.90
14735;DHT22;7458;49.002;8.472;2022-12-20T12:08:14;8.40;99.90
14735;DHT22;7458;49.002;8.472;2022-12-20T12:10:53;8.30;99.90
14735;DHT22;7458;49.002;8.472;2022-12-20T12:13:26;8.30;99.90
14735;DHT22;7458;49.002;8.472;2022-12-20T12:19:16;8.30;99.90
14735;DHT22;7458;49.002;8.472;2022-12-20T12:21:52;8.30;99.90
14735;DHT22;7458;49.002;8.472;2022-12-20T12:24:36;8.30;99.90
14735;DHT22;7458;49.002;8.472;2022-12-20T12:27:19;8.40;99.90
14735;DHT22;7458;49.002;8.472;2022-12-20T12:29:48;8.40;99.90
14735;DHT22;7458;49.002;8.472;2022-12-20T12:32:24;8.40;99.90
14735;DHT22;7458;49.002;8.472;2022-12-20T12:41:44;8.50;99.90
14735;DHT22;7458;49.002;8.472;2022-12-20T12:44:31;8.60;99.90
14735;DHT22;7458;49.002;8.472;2022-12-20T12:47:18;8.60;99.90
14735;DHT22;7458;49.002;8.472;2022-12-20T12:49:49;8.60;99.90
14735;DHT22;7458;49.002;8.472;2022-12-20T12:52:42;8.60;99.90
14735;DHT22;7458;49.002;8.472;2022-12-20T12:55:48;8.60;99.90
14735;DHT22;7458;49.002;8.472;2022-12-20T13:01:03;8.70;99.90
14735;DHT22;7458;49.002;8.472;2022-12-20T13:09:55;8.70;99.90
14735;DHT22;7458;49.002;8.472;2022-12-20T13:11:56;8.70;99.90
14735;DHT22;7458;49.002;8.472;2022-12-20T13:17:33;10.50;99.90
14735;DHT22;7458;49.002;8.472;2022-12-20T13:19:51;8.80;99.90
14735;DHT22;7458;49.002;8.472;2022-12-20T13:22:20;8.80;99.90
14735;DHT22;7458;49.002;8.472;2022-12-20T13:29:59;8.80;99.90
14735;DHT22;7458;49.002;8.472;2022-12-20T13:37:55;8.80;99.90
14735;DHT22;7458;49.002;8.472;2022-12-20T13:40:55;8.80;99.90
14735;DHT22;7458;49.002;8.472;2022-12-20T13:43:27;8.70;99.90
14735;DHT22;7458;49.002;8.472;2022-12-20T13:48:56;8.60;99.90
14735;DHT22;7458;49.002;8.472;2022-12-20T13:51:27;8.60;99.90
14735;DHT22;7458;49.002;8.472;2022-12-20T13:58:55;8.60;99.90
14735;DHT22;7458;49.002;8.472;2022-12-20T14:01:27;8.50;99.90
14735;DHT22;7458;49.002;8.472;2022-12-20T14:03:55;8.60;99.90
14735;DHT22;7458;49.002;8.472;2022-12-20T14:06:23;8.60;99.90
14735;DHT22;7458;49.002;8.472;2022-12-20T14:08:51;8.60;99.90
14735;DHT22;7458;49.002;8.472;2022-12-20T14:11:20;8.60;99.90
14735;DHT22;7458;49.002;8.472;2022-12-20T14:14:02;8.60;99.90
14735;DHT22;7458;49.002;8.472;2022-12-20T14:16:31;8.70;99.90
14735;DHT22;7458;49.002;8.472;2022-12-20T14:19:12;8.70;99.90
14735;DHT22;7458;49.002;8.472;2022-12-20T14:21:44;8.70;99.90
14735;DHT22;7458;49.002;8.472;2022-12-20T14:24:14;8.70;99.90
14735;DHT22;7458;49.002;8.472;2022-12-20T14:26:44;8.70;99.90
14735;DHT22;7458;49.002;8.472;2022-12-20T14:29:18;8.70;99.90
14735;DHT22;7458;49.002;8.472;2022-12-20T14:31:49;8.70;99.90
14735;DHT22;7458;49.002;8.472;2022-12-20T14:34:27;8.70;99.90
14735;DHT22;7458;49.002;8.472;2022-12-20T14:40:13;8.70;99.90
14735;DHT22;7458;49.002;8.472;2022-12-20T14:42:42;8.70;99.90
14735;DHT22;7458;49.002;8.472;2022-12-20T14:47:33;8.60;99.90
14735;DHT22;7458;49.002;8.472;2022-12-20T14:50:04;8.70;99.90
14735;DHT22;7458;49.002;8.472;2022-12-20T14:52:41;8.60;99.90
14735;DHT22;7458;49.002;8.472;2022-12-20T14:55:17;8.60;99.90
14735;DHT22;7458;49.002;8.472;2022-12-20T14:57:48;8.60;99.90
14735;DHT22;7458;49.002;8.472;2022-12-20T15:00:20;8.60;99.90
14735;DHT22;7458;49.002;8.472;2022-12-20T15:13:39;8.60;99.90
14735;DHT22;7458;49.002;8.472;2022-12-20T15:18:42;8.60;99.90
14735;DHT22;7458;49.002;8.472;2022-12-20T15:21:14;8.50;99.90
14735;DHT22;7458;49.002;8.472;2022-12-20T15:23:48;8.60;99.90
14735;DHT22;7458;49.002;8.472;2022-12-20T15:26:21;8.60;99.90
14735;DHT22;7458;49.002;8.472;2022-12-20T15:28:49;8.60;99.90
14735;DHT22;7458;49.002;8.472;2022-12-20T15:31:17;8.60;99.90
14735;DHT22;7458;49.002;8.472;2022-12-20T15:33:45;8.60;99.90
14735;DHT22;7458;49.002;8.472;2022-12-20T15:36:16;8.60;99.90
14735;DHT22;7458;49.002;8.472;2022-12-20T15:38:44;8.60;99.90
14735;DHT22;7458;49.002;8.472;2022-12-20T15:41:27;8.60;99.90
14735;DHT22;7458;49.002;8.472;2022-12-20T15:44:04;8.60;99.90
14735;DHT22;7458;49.002;8.472;2022-12-20T15:46:31;8.60;99.90
14735;DHT22;7458;49.002;8.472;2022-12-20T15:48:57;8.60;99.90
14735;DHT22;7458;49.002;8.472;2022-12-20T15:51:31;8.60;99.90
14735;DHT22;7458;49.002;8.472;2022-12-20T15:54:04;8.60;99.90
14735;DHT22;7458;49.002;8.472;2022-12-20T15:56:38;8.60;99.90
14735;DHT22;7458;49.002;8.472;2022-12-20T15:59:09;8.60;99.90
14735;DHT22;7458;49.002;8.472;2022-12-20T16:01:48;8.70;99.90
14735;DHT22;7458;49.002;8.472;2022-12-20T16:04:17;8.60;99.90
14735;DHT22;7458;49.002;8.472;2022-12-20T16:06:47;8.60;99.90
14735;DHT22;7458;49.002;8.472;2022-12-20T16:09:14;8.50;99.90
14735;DHT22;7458;49.002;8.472;2022-12-20T16:11:42;8.70;99.90
14735;DHT22;7458;49.002;8.472;2022-12-20T16:14:13;8.90;99.90
14735;DHT22;7458;49.002;8.472;2022-12-20T16:16:41;8.80;99.90
14735;DHT22;7458;49.002;8.472;2022-12-20T16:19:08;8.80;99.90
14735;DHT22;7458;49.002;8.472;2022-12-20T16:21:42;8.70;99.90
14735;DHT22;7458;49.002;8.472;2022-12-20T16:24:13;8.70;99.90
14735;DHT22;7458;49.002;8.472;2022-12-20T16:26:40;8.60;99.90
14735;DHT22;7458;49.002;8.472;2022-12-20T16:29:06;8.60;99.90
14735;DHT22;7458;49.002;8.472;2022-12-20T16:31:39;8.50;99.90
14735;DHT22;7458;49.002;8.472;2022-12-20T16:34:14;8.50;99.90
14735;DHT22;7458;49.002;8.472;2022-12-20T16:36:41;8.50;99.90
14735;DHT22;7458;49.002;8.472;2022-12-20T16:39:07;8.40;99.90
14735;DHT22;7458;49.002;8.472;2022-12-20T16:41:36;8.30;99.90
14735;DHT22;7458;49.002;8.472;2022-12-20T16:44:04;8.30;99.90
14735;DHT22;7458;49.002;8.472;2022-12-20T16:46:32;8.30;99.90
14735;DHT22;7458;49.002;8.472;2022-12-20T16:48:59;8.30;99.90
14735;DHT22;7458;49.002;8.472;2022-12-20T16:51:38;9.10;99.90
14735;DHT22;7458;49.002;8.472;2022-12-20T16:54:13;9.00;99.90
14735;DHT22;7458;49.002;8.472;2022-12-20T16:56:41;8.90;99.90
14735;DHT22;7458;49.002;8.472;2022-12-20T16:59:08;8.70;99.90
14735;DHT22;7458;49.002;8.472;2022-12-20T17:01:36;8.60;99.90
14735;DHT22;7458;49.002;8.472;2022-12-20T17:04:04;8.60;99.90
14735;DHT22;7458;49.002;8.472;2022-12-20T17:06:31;8.50;99.90
14735;DHT22;7458;49.002;8.472;2022-12-20T17:08:57;8.50;99.90
14735;DHT22;7458;49.002;8.472;2022-12-20T17:11:26;8.50;99.90
14735;DHT22;7458;49.002;8.472;2022-12-20T17:13:55;8.50;99.90
14735;DHT22;7458;49.002;8.472;2022-12-20T17:16:21;8.40;99.90
14735;DHT22;7458;49.002;8.472;2022-12-20T17:18:50;8.40;99.90
14735;DHT22;7458;49.002;8.472;2022-12-20T17:21:28;8.40;99.90
14735;DHT22;7458;49.002;8.472;2022-12-20T17:24:00;8.40;99.90
14735;DHT22;7458;49.002;8.472;2022-12-20T17:26:28;8.30;99.90
14735;DHT22;7458;49.002;8.472;2022-12-20T17:28:56;8.30;99.90
14735;DHT22;7458;49.002;8.472;2022-12-20T17:31:34;8.20;99.90
14735;DHT22;7458;49.002;8.472;2022-12-20T17:34:18;8.20;99.90
14735;DHT22;7458;49.002;8.472;2022-12-20T17:36:58;8.10;99.90
14735;DHT22;7458;49.002;8.472;2022-12-20T17:39:24;8.10;99.90
14735;DHT22;7458;49.002;8.472;2022-12-20T17:41:50;8.10;99.90
14735;DHT22;7458;49.002;8.472;2022-12-20T17:46:48;8.20;99.90
14735;DHT22;7458;49.002;8.472;2022-12-20T17:49:14;8.20;99.90
14735;DHT22;7458;49.002;8.472;2022-12-20T17:51:41;8.20;99.90
14735;DHT22;7458;49.002;8.472;2022-12-20T17:54:17;8.20;99.90
14735;DHT22;7458;49.002;8.472;2022-12-20T17:56:43;8.20;99.90
14735;DHT22;7458;49.002;8.472;2022-12-20T17:59:10;8.10;99.90
14735;DHT22;7458;49.002;8.472;2022-12-20T18:01:38;8.10;99.90
14735;DHT22;7458;49.002;8.472;2022-12-20T18:04:05;8.10;99.90
14735;DHT22;7458;49.002;8.472;2022-12-20T18:06:34;8.20;99.90
14735;DHT22;7458;49.002;8.472;2022-12-20T18:09:05;8.20;99.90
14735;DHT22;7458;49.002;8.472;2022-12-20T18:11:36;8.20;99.90
14735;DHT22;7458;49.002;8.472;2022-12-20T18:14:02;8.20;99.90
14735;DHT22;7458;49.002;8.472;2022-12-20T18:16:30;8.20;99.90
14735;DHT22;7458;49.002;8.472;2022-12-20T18:18:57;8.20;99.90
14735;DHT22;7458;49.002;8.472;2022-12-20T18:21:25;8.30;99.90
14735;DHT22;7458;49.002;8.472;2022-12-20T18:23:52;8.20;99.90